Terminal Aerodrome Forecast
Issued by NWS

Home | Current Version | Previous Version | Text Only | Print | Product List | Glossary Off
Versions: 1 2 3 4 5 6 7 8 9 10 11 12 13 14 15 16 17 18 19 20 21 22

318
FTUS43 KICT 251103 AAB
TAFRSL
TAF AMD
KRSL 251103Z 2511/2606 03008KT P6SM BKN035
     FM251600 06008KT P6SM SCT035 BKN100
     FM252200 07009KT P6SM VCTS SCT035CB BKN080=

USA.gov is the U.S. government's official web portal to all federal, state and local government web resources and services.